• Join FlightAware (Why Join?)
  • Login
  • US Flag 
08:52PM EDT


 

Airport Tracker/Info


-or-


 

Live Flight TrackerFlight Track Log ✈ AAL2360 ✈ 06-Jun-2013 ✈ KDFW - KORD

Flight Track Log - Related Links

Times and Time Zones

All times are in EDT time to prevent confusion due to time zone crossing. See the AAL2360 flight status page for this flight to view local times or setup timezone preferences in your user account.

Time Position Orientation Groundspeed Altitude Reporting Facility
EDT Latitude Longitude Course Direction KTS MPH feet Rate Location/Type
04:38PM 32.9167 -97.0333 357° North 181 208 1,300  Level Dallas / Fort Worth TRACON
04:39PM 32.9500 -97.0167 23° Northeast 176 203 2,800 2,040 Climbing Dallas / Fort Worth TRACON
04:40PM 32.7601 -96.8495 77° East  Level FlightAware Approximate
04:40PM 33.0167 -97.0000 12° North 241 277 5,000  Level Dallas / Fort Worth TRACON
04:41PM 32.8581 -96.8000 North  Level FlightAware Approximate
04:42PM 32.9791 -96.8000 North  Level FlightAware Approximate
04:42PM 33.1478 -96.9469 19° North 267 307 10,500  Level Fort Worth Center
04:43PM 33.1001 -96.8024 357° North  Level FlightAware Approximate
04:43PM 33.2144 -96.9169 21° North 277 319 12,000  Level Fort Worth Center
04:44PM 33.3081 -96.8692 23° Northeast 311 358 14,300 2,100 Climbing Fort Worth Center
04:45PM 33.3978 -96.8386 16° North 331 381 16,300 2,040 Climbing Fort Worth Center
04:46PM 33.4853 -96.8058 17° North 345 397 18,400 1,920 Climbing Fort Worth Center
04:47PM 33.5850 -96.7403 29° Northeast 357 411 20,200 1,680 Climbing Fort Worth Center
04:48PM 33.6683 -96.6847 29° Northeast 376 433 21,900 1,500 Climbing Fort Worth Center
04:49PM 33.7764 -96.6164 28° Northeast 381 438 23,300 1,260 Climbing Fort Worth Center
04:50PM 33.8803 -96.5478 29° Northeast 396 456 24,400 1,380 Climbing Fort Worth Center
04:51PM 33.9861 -96.4792 28° Northeast 408 470 26,100 1,560 Climbing Fort Worth Center
04:52PM 34.0922 -96.4078 29° Northeast 420 483 27,600 1,440 Climbing Fort Worth Center
04:53PM 34.1875 -96.3289 34° Northeast 420 483 29,000 660 Climbing Fort Worth Center
04:54PM 34.2931 -96.2444 33° Northeast 432 497 29,000  Level Fort Worth Center
04:55PM 34.4008 -96.1525 35° Northeast 451 519 29,000  Level Fort Worth Center
04:56PM 34.5103 -96.0628 34° Northeast 464 534 29,000  Level Fort Worth Center
04:57PM 34.6178 -95.9728 35° Northeast 464 534 29,000  Level Fort Worth Center
04:58PM 34.7294 -95.8825 34° Northeast 464 534 29,000  Level Fort Worth Center
04:59PM 34.8367 -95.7894 35° Northeast 464 534 29,000  Level Fort Worth Center
05:00PM 34.9358 -95.7014 36° Northeast 471 542 29,000 120 Level Fort Worth Center
05:01PM 35.0408 -95.6056 37° Northeast 471 542 29,300 480 Climbing Fort Worth Center
05:02PM 35.1456 -95.5042 38° Northeast 471 542 30,000 840 Climbing Fort Worth Center
05:03PM 35.2525 -95.4053 37° Northeast 477 549 31,000 660 Climbing Fort Worth Center
05:03PM 35.3122 -95.3467 39° Northeast 478 550 31,000  Level Memphis Center
05:04PM 35.4117 -95.2558 37° Northeast 484 557 31,000  Level Memphis Center
05:05PM 35.5181 -95.1497 39° Northeast 484 557 31,000  Level Memphis Center
05:06PM 35.6261 -95.0489 37° Northeast 484 557 31,000  Level Memphis Center
05:07PM 35.7344 -94.9425 39° Northeast 484 557 31,000  Level Memphis Center
05:08PM 35.8447 -94.8383 37° Northeast 484 557 31,000  Level Memphis Center
05:09PM 35.9506 -94.7339 39° Northeast 484 557 31,000  Level Memphis Center
05:12PM 36.2025 -94.4856 38° Northeast 489 563 31,000  Level Kansas City Center
05:13PM 36.3092 -94.3814 38° Northeast 489 563 31,000  Level Kansas City Center
05:14PM 36.4147 -94.2767 39° Northeast 489 563 31,000  Level Kansas City Center
05:15PM 36.5208 -94.1725 38° Northeast 487 560 31,000  Level Kansas City Center
05:16PM 36.6489 -94.0447 39° Northeast 490 564 31,000  Level Kansas City Center
05:17PM 36.7567 -93.9389 38° Northeast 493 567 31,000  Level Kansas City Center
05:18PM 36.8644 -93.8303 39° Northeast 497 572 31,000  Level Kansas City Center
05:19PM 36.9681 -93.7256 39° Northeast 492 566 31,000  Level Kansas City Center
05:20PM 37.0767 -93.6167 39° Northeast 496 571 31,000  Level Kansas City Center
05:21PM 37.1858 -93.5072 39° Northeast 500 575 31,000  Level Kansas City Center
05:22PM 37.3161 -93.3744 39° Northeast 500 575 31,000  Level Kansas City Center
05:23PM 37.4267 -93.2664 38° Northeast 501 577 31,000  Level Kansas City Center
05:24PM 37.5417 -93.1639 35° Northeast 501 577 31,000  Level Kansas City Center
05:25PM 37.6553 -93.0597 36° Northeast 502 578 31,000  Level Kansas City Center
05:26PM 37.7689 -92.9525 37° Northeast 505 581 31,000  Level Kansas City Center
05:27PM 37.8831 -92.8458 36° Northeast 506 582 31,000  Level Kansas City Center
05:28PM 38.0058 -92.7306 36° Northeast 505 581 31,000  Level Kansas City Center
05:29PM 38.1186 -92.6247 36° Northeast 504 580 31,000  Level Kansas City Center
05:30PM 38.2503 -92.5025 36° Northeast 503 579 31,000  Level Kansas City Center
05:31PM 38.3619 -92.3944 37° Northeast 500 575 31,000  Level Kansas City Center
05:32PM 38.4719 -92.2875 37° Northeast 495 570 31,000  Level Kansas City Center
05:33PM 38.5836 -92.1817 37° Northeast 494 568 31,000  Level Kansas City Center
05:34PM 38.6944 -92.0767 36° Northeast 494 568 31,000  Level Kansas City Center
05:35PM 38.8047 -91.9694 37° Northeast 494 568 31,000  Level Kansas City Center
05:36PM 38.9156 -91.8614 37° Northeast 497 572 31,000  Level Kansas City Center
05:37PM 39.0253 -91.7544 37° Northeast 496 571 31,000  Level Kansas City Center
05:38PM 39.1361 -91.6472 37° Northeast 497 572 31,000  Level Kansas City Center
05:39PM 39.2697 -91.5167 37° Northeast 499 574 31,000  Level Kansas City Center
05:41PM 39.3783 -91.4094 37° Northeast 495 570 31,000  Level Kansas City Center
05:42PM 39.4875 -91.3014 37° Northeast 493 567 31,000  Level Kansas City Center
05:43PM 39.5983 -91.1911 37° Northeast 497 572 31,000  Level Kansas City Center
05:44PM 39.7089 -91.0806 38° Northeast 499 574 31,000  Level Kansas City Center
05:45PM 39.8231 -90.9678 37° Northeast 497 572 31,000  Level Kansas City Center
05:46PM 39.9325 -90.8572 38° Northeast 497 572 31,000  Level Kansas City Center
05:47PM 40.0422 -90.7461 38° Northeast 498 573 31,000  Level Kansas City Center
05:48PM 40.1728 -90.6131 38° Northeast 495 570 31,000  Level Kansas City Center
05:49PM 40.2811 -90.5031 38° Northeast 495 570 31,000  Level Kansas City Center
05:50PM 40.3889 -90.3922 38° Northeast 492 566 31,000  Level Kansas City Center
05:50PM 40.4319 -90.3481 38° Northeast 491 565 31,000  Level Chicago Center
05:51PM 40.5450 -90.2325 38° Northeast 489 563 31,000 -60 Level Chicago Center
05:52PM 40.6519 -90.1225 38° Northeast 490 564 30,900 -360 Descending Chicago Center
05:53PM 40.7600 -90.0117 38° Northeast 493 567 30,300 -900 Descending Chicago Center
05:54PM 40.8650 -89.8992 39° Northeast 487 560 29,100 -1,620 Descending Chicago Center
05:55PM 40.9911 -89.7683 38° Northeast 483 556 27,000 -2,040 Descending Chicago Center
05:56PM 41.0814 -89.6739 38° Northeast 486 559 25,000 -2,280 Descending Chicago Center
05:57PM 41.1883 -89.5175 48° Northeast 473 544 22,400 -2,280 Descending Chicago Center
05:58PM 41.2497 -89.3686 61° Northeast 458 527 20,300 -2,040 Descending Chicago Center
06:00PM 41.3058 -89.2286 62° Northeast 428 493 18,200 -2,160 Descending Chicago Center
06:01PM 41.3644 -89.0794 62° Northeast 407 468 15,900 -2,160 Descending Chicago Center
06:02PM 41.4153 -88.9522 62° Northeast 392 451 13,800 -2,040 Descending Chicago Center
06:03PM 41.4636 -88.8300 62° Northeast 376 433 11,800 -1,380 Descending Chicago Center
06:04PM 41.5094 -88.7158 62° Northeast 354 407 11,000 -420 Descending Chicago Center
06:05PM 41.5486 -88.6164 62° Northeast 308 354 11,000 -120 Level Chicago Center
06:06PM 41.5764 -88.5058 71° East 314 361 10,800 -840 Descending Chicago Center
06:07PM 41.6011 -88.3800 75° East 294 338 9,300 -1,260 Descending Chicago Center
06:08PM 41.6272 -88.2750 72° East 301 346 8,300 -720 Descending Chicago Center
06:09PM 41.6875 -88.2144 37° Northeast 273 314 7,900 -900 Descending Chicago Center
06:10PM 41.7397 -88.1500 43° Northeast 258 297 6,500 -1,200 Descending Chicago Center
06:11PM 41.7892 -88.0933 41° Northeast 241 277 5,500 -960 Descending Chicago Center